Egilsstadir, Iceland
Current Conditions -  °F | °C
As of 9:00 PM on Monday 22 Dec 2014 (Local Time) from BIEG Reporting Station
Moderate Snow Moderate Snow  
Wind Chill: 20°   Ceiling: 2300
Heat Index: 34°   Visibility: 5mi
Dew Point: 34°   Wind: 29mph
Humidity: 100%   Direction: 360°N
Pressure: 28.97"   Gusts: 40mph
Location:  65.27°N, 14.39°W
Report Text: BIEG 222100Z 36025G35KT 8000 RASN FEW007 BKN023 OVC03401/01 Q0981 R04/790146
Loading
Personal Weather Stations






























Interactive Weather Map New forecast layout! Learn more

10-Day Weather Forecast

Advertisements
Track Severe Weather on mobile